Time;durP1;ratioP1;P1;durP2;ratioP2;P2;SDS_P1;SDS_P2;PMS_P1;PMS_P2;Temp;Humidity;BMP_temperature;BMP_pressure;BME280_temperature;BME280_humidity;BME280_pressure;Samples;Min_cycle;Max_cycle;Signal;HPM_P1;HPM_P2
2022/03/06 00:01:04;;;;;;;;;;;1.20;99.90;;;;;;5054520;28;19924;-77
2022/03/06 00:03:32;;;;;;;;;;;1.20;99.90;;;;;;5054911;28;19936;-78
2022/03/06 00:05:59;;;;;;;;;;;1.20;99.90;;;;;;5054741;28;19924;-77
2022/03/06 00:08:26;;;;;;;;;;;1.20;99.90;;;;;;5054533;28;19928;-77
2022/03/06 00:10:53;;;;;;;;;;;1.20;99.90;;;;;;5054182;28;19929;-79
2022/03/06 00:13:20;;;;;;;;;;;1.10;99.90;;;;;;5054489;28;20280;-77
2022/03/06 00:15:46;;;;;;;;;;;1.10;99.90;;;;;;5053906;28;19928;-78
2022/03/06 00:18:13;;;;;;;;;;;1.10;99.90;;;;;;5054407;28;20314;-77
2022/03/06 00:20:42;;;;;;;;;;;1.10;99.90;;;;;;5054027;28;20383;-76
2022/03/06 00:23:09;;;;;;;;;;;1.10;99.90;;;;;;5054282;28;20020;-77
2022/03/06 00:25:36;;;;;;;;;;;1.10;99.90;;;;;;5053817;28;19970;-77
2022/03/06 00:28:03;;;;;;;;;;;1.00;99.90;;;;;;5053120;28;19932;-76
2022/03/06 00:30:30;;;;;;;;;;;1.00;99.90;;;;;;5053581;28;20284;-77
2022/03/06 00:32:57;;;;;;;;;;;1.00;99.90;;;;;;5053864;28;19924;-78
2022/03/06 00:35:24;;;;;;;;;;;0.90;99.90;;;;;;5053686;28;19925;-77
2022/03/06 00:37:52;;;;;;;;;;;0.90;99.90;;;;;;5053527;28;20337;-77
2022/03/06 00:40:19;;;;;;;;;;;0.80;99.90;;;;;;5053352;28;19924;-77
2022/03/06 00:42:45;;;;;;;;;;;0.80;99.90;;;;;;5053853;28;20272;-78
2022/03/06 00:45:12;;;;;;;;;;;0.70;99.90;;;;;;5053946;28;19928;-77
2022/03/06 00:47:39;;;;;;;;;;;0.70;99.90;;;;;;5053831;28;20387;-77
2022/03/06 00:50:06;;;;;;;;;;;0.70;99.90;;;;;;5053411;28;19978;-78
2022/03/06 00:52:33;;;;;;;;;;;0.60;99.90;;;;;;5053611;28;19931;-77
2022/03/06 00:55:02;;;;;;;;;;;0.60;99.90;;;;;;5053690;28;19928;-77
2022/03/06 00:57:28;;;;;;;;;;;0.60;99.90;;;;;;5053402;28;19928;-77
2022/03/06 00:59:55;;;;;;;;;;;0.60;99.90;;;;;;5053188;28;19970;-77
2022/03/06 01:02:22;;;;;;;;;;;0.50;99.90;;;;;;5053800;28;19928;-76
2022/03/06 01:04:49;;;;;;;;;;;0.50;99.90;;;;;;5053634;28;19932;-76
2022/03/06 01:07:16;;;;;;;;;;;0.40;99.90;;;;;;5053294;28;20365;-77
2022/03/06 01:09:43;;;;;;;;;;;0.40;99.90;;;;;;5052947;28;19928;-78
2022/03/06 01:12:12;;;;;;;;;;;0.40;99.90;;;;;;5053569;28;19932;-77
2022/03/06 01:14:39;;;;;;;;;;;0.30;99.90;;;;;;5053575;28;19978;-77
2022/03/06 01:17:06;;;;;;;;;;;0.30;99.90;;;;;;5052905;28;19928;-77
2022/03/06 01:19:32;;;;;;;;;;;0.20;99.90;;;;;;5052633;28;19928;-78
2022/03/06 01:21:59;;;;;;;;;;;0.20;99.90;;;;;;5053057;28;19924;-78
2022/03/06 01:24:26;;;;;;;;;;;0.10;99.90;;;;;;5053156;28;20276;-77
2022/03/06 01:26:53;;;;;;;;;;;0.10;99.90;;;;;;5053291;28;20448;-78
2022/03/06 01:29:22;;;;;;;;;;;0.00;99.90;;;;;;5052895;28;19932;-77
2022/03/06 01:31:49;;;;;;;;;;;0.00;99.90;;;;;;5052906;28;19925;-78
2022/03/06 01:34:16;;;;;;;;;;;0.00;99.90;;;;;;5053045;28;19928;-77
2022/03/06 01:36:43;;;;;;;;;;;-0.10;99.90;;;;;;5052848;28;19928;-78
2022/03/06 01:39:09;;;;;;;;;;;-0.10;99.90;;;;;;5052225;28;19924;-78
2022/03/06 01:41:36;;;;;;;;;;;-0.20;99.90;;;;;;5052896;28;19925;-76
2022/03/06 01:44:04;;;;;;;;;;;-0.20;99.90;;;;;;5052711;28;19994;-77
2022/03/06 01:46:32;;;;;;;;;;;-0.30;99.90;;;;;;5052863;28;19936;-77
2022/03/06 01:48:59;;;;;;;;;;;-0.30;99.90;;;;;;5052642;28;19928;-77
2022/03/06 01:51:26;;;;;;;;;;;-0.30;99.90;;;;;;5052809;28;19925;-78
2022/03/06 01:53:52;;;;;;;;;;;-0.40;99.90;;;;;;5052869;28;19929;-77
2022/03/06 01:56:19;;;;;;;;;;;-0.40;99.90;;;;;;5063172;28;19928;-76
2022/03/06 01:58:47;;;;;;;;;;;-0.50;99.90;;;;;;5055039;28;19932;-77
2022/03/06 02:01:14;;;;;;;;;;;-0.50;99.90;;;;;;5052943;28;19931;-77
2022/03/06 02:03:42;;;;;;;;;;;-0.50;99.90;;;;;;5052855;28;19924;-77
2022/03/06 02:06:09;;;;;;;;;;;-0.50;99.90;;;;;;5052570;28;19924;-77
2022/03/06 02:08:36;;;;;;;;;;;-0.60;99.90;;;;;;5053003;28;19925;-77
2022/03/06 02:11:03;;;;;;;;;;;-0.60;99.90;;;;;;5052387;28;19929;-76
2022/03/06 02:13:29;;;;;;;;;;;-0.70;99.90;;;;;;5052569;28;19924;-78
2022/03/06 02:15:57;;;;;;;;;;;-0.70;99.90;;;;;;5052556;28;20391;-77
2022/03/06 02:18:23;;;;;;;;;;;-0.80;99.90;;;;;;5052756;28;19928;-77
2022/03/06 02:20:52;;;;;;;;;;;-0.80;99.90;;;;;;5051932;28;19924;-78
2022/03/06 02:23:20;;;;;;;;;;;-0.90;99.90;;;;;;5052438;28;19928;-77
2022/03/06 02:25:47;;;;;;;;;;;-0.90;99.90;;;;;;5052566;28;19939;-76
2022/03/06 02:28:14;;;;;;;;;;;-0.90;99.90;;;;;;5052241;28;19974;-77
2022/03/06 02:30:41;;;;;;;;;;;-1.00;99.90;;;;;;5051590;28;19971;-78
2022/03/06 02:33:12;;;;;;;;;;;-1.00;99.90;;;;;;5052414;28;19924;-77
2022/03/06 02:35:39;;;;;;;;;;;-1.00;99.90;;;;;;5052496;28;20444;-77
2022/03/06 02:38:06;;;;;;;;;;;-1.00;99.90;;;;;;5052385;28;19924;-78
2022/03/06 02:40:38;;;;;;;;;;;-1.10;99.90;;;;;;5051942;28;20005;-77
2022/03/06 02:43:06;;;;;;;;;;;-1.10;99.90;;;;;;5052463;28;19960;-78
2022/03/06 02:45:33;;;;;;;;;;;-1.10;99.90;;;;;;5052280;28;20459;-77
2022/03/06 02:48:00;;;;;;;;;;;-1.10;99.90;;;;;;5052343;28;19938;-78
2022/03/06 02:50:29;;;;;;;;;;;-1.10;99.90;;;;;;5053267;28;20011;-77
2022/03/06 02:52:57;;;;;;;;;;;-1.20;99.90;;;;;;5055978;28;20280;-78
2022/03/06 02:55:24;;;;;;;;;;;-1.20;99.90;;;;;;5055899;28;19981;-77
2022/03/06 02:57:52;;;;;;;;;;;-1.20;99.90;;;;;;5055695;28;19960;-77
2022/03/06 03:00:22;;;;;;;;;;;-1.30;99.90;;;;;;5055311;28;19924;-77
2022/03/06 03:02:49;;;;;;;;;;;-1.30;99.90;;;;;;5055871;28;20032;-77
2022/03/06 03:05:17;;;;;;;;;;;-1.30;99.90;;;;;;5055808;28;19928;-78
2022/03/06 03:07:45;;;;;;;;;;;-1.40;99.90;;;;;;5055826;28;20284;-77
2022/03/06 03:10:13;;;;;;;;;;;-1.40;99.90;;;;;;5055096;28;19954;-77
2022/03/06 03:12:40;;;;;;;;;;;-1.40;99.90;;;;;;5055409;28;19925;-77
2022/03/06 03:15:09;;;;;;;;;;;-1.40;99.90;;;;;;5055525;28;19935;-78
2022/03/06 03:17:36;;;;;;;;;;;-1.40;99.90;;;;;;5055505;28;19947;-77
2022/03/06 03:20:03;;;;;;;;;;;-1.40;99.90;;;;;;5055089;28;19960;-77
2022/03/06 03:22:30;;;;;;;;;;;-1.50;99.90;;;;;;5055378;28;19924;-77
2022/03/06 03:24:57;;;;;;;;;;;-1.60;99.90;;;;;;5055617;28;19924;-77
2022/03/06 03:27:24;;;;;;;;;;;-1.70;99.90;;;;;;5055184;28;19932;-76
2022/03/06 03:29:50;;;;;;;;;;;-1.80;99.90;;;;;;5064244;28;19970;-76
2022/03/06 03:32:19;;;;;;;;;;;-1.80;99.90;;;;;;5058818;28;19925;-77
2022/03/06 03:34:45;;;;;;;;;;;-1.80;99.90;;;;;;5055295;28;19971;-76
2022/03/06 03:37:12;;;;;;;;;;;-1.90;99.90;;;;;;5055318;28;19925;-77
2022/03/06 03:39:39;;;;;;;;;;;-1.90;99.90;;;;;;5054825;28;19924;-77
2022/03/06 03:42:06;;;;;;;;;;;-1.90;99.90;;;;;;5055405;28;19925;-77
2022/03/06 03:44:33;;;;;;;;;;;-1.90;99.90;;;;;;5055323;28;19928;-77
2022/03/06 03:47:00;;;;;;;;;;;-1.90;99.90;;;;;;5055252;28;20357;-75
2022/03/06 03:49:28;;;;;;;;;;;-1.90;99.90;;;;;;5055105;28;19931;-78
2022/03/06 03:51:55;;;;;;;;;;;-1.90;99.90;;;;;;5055527;28;19932;-78
2022/03/06 03:54:22;;;;;;;;;;;-1.90;99.90;;;;;;5055125;28;19924;-77
2022/03/06 03:56:49;;;;;;;;;;;-1.80;99.90;;;;;;5055149;28;19925;-77
2022/03/06 03:59:15;;;;;;;;;;;-1.80;99.90;;;;;;5054883;28;19928;-78
2022/03/06 04:01:42;;;;;;;;;;;-1.80;99.90;;;;;;5054756;28;19925;-77
2022/03/06 04:04:09;;;;;;;;;;;-1.80;99.90;;;;;;5054775;28;19960;-77
2022/03/06 04:06:37;;;;;;;;;;;-1.80;99.90;;;;;;5054995;28;19924;-77
2022/03/06 04:09:04;;;;;;;;;;;-1.80;99.90;;;;;;5054355;28;19924;-77
2022/03/06 04:11:31;;;;;;;;;;;-1.80;99.90;;;;;;5054666;28;19928;-77
2022/03/06 04:13:58;;;;;;;;;;;-1.70;99.90;;;;;;5054850;28;19924;-76
2022/03/06 04:16:25;;;;;;;;;;;-1.70;99.90;;;;;;5054426;28;20039;-76
2022/03/06 04:18:52;;;;;;;;;;;-1.70;99.90;;;;;;5054180;28;19925;-76
2022/03/06 04:21:18;;;;;;;;;;;-1.70;99.90;;;;;;5054499;28;19924;-76
2022/03/06 04:23:47;;;;;;;;;;;-1.70;99.90;;;;;;5054511;28;19925;-76
2022/03/06 04:26:14;;;;;;;;;;;-1.60;99.90;;;;;;5054544;28;20087;-77
2022/03/06 04:28:40;;;;;;;;;;;-1.60;99.90;;;;;;5054259;28;19924;-76
2022/03/06 04:31:07;;;;;;;;;;;-1.60;99.90;;;;;;5054308;28;20276;-77
2022/03/06 04:33:34;;;;;;;;;;;-1.50;99.90;;;;;;5054331;28;19924;-77
2022/03/06 04:36:01;;;;;;;;;;;-1.50;99.90;;;;;;5054040;28;19928;-77
2022/03/06 04:38:27;;;;;;;;;;;-1.50;99.90;;;;;;5054142;28;19928;-77
2022/03/06 04:40:56;;;;;;;;;;;-1.40;99.90;;;;;;5053927;28;19974;-77
2022/03/06 04:43:24;;;;;;;;;;;-1.40;99.90;;;;;;5054453;28;19928;-77
2022/03/06 04:45:51;;;;;;;;;;;-1.40;99.90;;;;;;5054288;28;20141;-77
2022/03/06 04:48:18;;;;;;;;;;;-1.40;99.90;;;;;;5054168;28;19925;-77
2022/03/06 04:50:44;;;;;;;;;;;-1.40;99.90;;;;;;5053502;28;19925;-77
2022/03/06 04:53:11;;;;;;;;;;;-1.40;99.90;;;;;;5054186;28;20304;-77
2022/03/06 04:55:38;;;;;;;;;;;-1.50;99.90;;;;;;5053887;28;19924;-77
2022/03/06 04:58:06;;;;;;;;;;;-1.50;99.90;;;;;;5053973;28;19928;-77
2022/03/06 05:00:33;;;;;;;;;;;-1.60;99.90;;;;;;5053288;28;19931;-77
2022/03/06 05:03:00;;;;;;;;;;;-1.70;99.90;;;;;;5053970;28;20268;-78
2022/03/06 05:05:27;;;;;;;;;;;-1.70;99.90;;;;;;5053948;28;19924;-77
2022/03/06 05:07:54;;;;;;;;;;;-1.80;99.90;;;;;;5053759;28;19978;-77
2022/03/06 05:10:21;;;;;;;;;;;-1.80;99.90;;;;;;5053441;28;19925;-77
2022/03/06 05:12:47;;;;;;;;;;;-1.90;99.90;;;;;;5053562;28;19929;-76
2022/03/06 05:15:16;;;;;;;;;;;-1.90;99.90;;;;;;5053628;28;19928;-78
2022/03/06 05:17:43;;;;;;;;;;;-1.80;99.90;;;;;;5053938;28;19924;-78
2022/03/06 05:20:11;;;;;;;;;;;-1.90;99.90;;;;;;5053515;28;19924;-75
2022/03/06 05:22:38;;;;;;;;;;;-1.90;99.90;;;;;;5053844;28;19925;-77
2022/03/06 05:25:05;;;;;;;;;;;-2.00;99.90;;;;;;5053896;28;19924;-78
2022/03/06 05:27:32;;;;;;;;;;;-2.00;99.90;;;;;;5053418;28;19925;-77
2022/03/06 05:29:59;;;;;;;;;;;-2.00;99.90;;;;;;5053159;28;19950;-76
2022/03/06 05:32:27;;;;;;;;;;;-2.00;99.90;;;;;;5053499;28;19928;-78
2022/03/06 05:34:54;;;;;;;;;;;-1.90;99.90;;;;;;5053683;28;19925;-78
2022/03/06 05:37:21;;;;;;;;;;;-1.90;99.90;;;;;;5053390;28;19924;-76
2022/03/06 05:39:47;;;;;;;;;;;-1.90;99.90;;;;;;5053072;28;20341;-79
2022/03/06 05:42:15;;;;;;;;;;;-1.80;99.90;;;;;;5053623;28;19940;-76
2022/03/06 05:44:41;;;;;;;;;;;-1.70;99.90;;;;;;5053338;28;20337;-76
2022/03/06 05:47:08;;;;;;;;;;;-1.70;99.90;;;;;;5052990;28;20405;-77
2022/03/06 05:49:36;;;;;;;;;;;-1.60;99.90;;;;;;5091028;22;19924;-71
2022/03/06 05:52:03;;;;;;;;;;;-1.50;99.90;;;;;;5072797;28;20027;-73
2022/03/06 05:54:30;;;;;;;;;;;-1.40;99.90;;;;;;5072608;28;19972;-74
2022/03/06 05:56:56;;;;;;;;;;;-1.40;99.90;;;;;;5083406;28;19932;-74
2022/03/06 05:59:23;;;;;;;;;;;-1.30;99.90;;;;;;5086483;28;19924;-74
2022/03/06 06:01:50;;;;;;;;;;;-1.30;99.90;;;;;;5084393;28;19932;-74
2022/03/06 06:04:18;;;;;;;;;;;-1.20;99.90;;;;;;5078076;28;20312;-74
2022/03/06 06:06:46;;;;;;;;;;;-1.20;99.90;;;;;;5072850;28;19928;-76
2022/03/06 06:09:13;;;;;;;;;;;-1.10;99.90;;;;;;5072105;28;19984;-74
2022/03/06 06:11:40;;;;;;;;;;;-1.10;99.90;;;;;;5072996;28;19924;-73
2022/03/06 06:14:07;;;;;;;;;;;-1.10;99.90;;;;;;5072737;28;19943;-73
2022/03/06 06:16:33;;;;;;;;;;;-1.00;99.90;;;;;;5072559;28;20365;-75
2022/03/06 06:19:00;;;;;;;;;;;-1.00;99.90;;;;;;5072332;28;19923;-73
2022/03/06 06:21:27;;;;;;;;;;;-1.00;99.90;;;;;;5073123;28;19932;-72
2022/03/06 06:23:55;;;;;;;;;;;-1.00;99.90;;;;;;5073398;28;19928;-77
2022/03/06 06:26:24;;;;;;;;;;;-1.00;99.90;;;;;;5076020;28;19928;-75
2022/03/06 06:28:55;;;;;;;;;;;-1.00;99.90;;;;;;5076185;28;20264;-71
2022/03/06 06:31:23;;;;;;;;;;;-1.00;99.90;;;;;;5076592;28;19924;-73
2022/03/06 06:33:50;;;;;;;;;;;-1.00;99.90;;;;;;5076620;28;20006;-74
2022/03/06 06:36:17;;;;;;;;;;;-1.00;99.90;;;;;;5076673;28;19939;-74
2022/03/06 06:38:44;;;;;;;;;;;-1.00;99.90;;;;;;5076263;28;19928;-72
2022/03/06 06:41:13;;;;;;;;;;;-1.00;99.90;;;;;;5076635;28;19928;-73
2022/03/06 06:43:40;;;;;;;;;;;-1.10;99.90;;;;;;5076533;28;19928;-72
2022/03/06 06:46:06;;;;;;;;;;;-1.10;99.90;;;;;;5089784;28;19924;-71
2022/03/06 06:48:33;;;;;;;;;;;-1.10;99.90;;;;;;5093011;28;19932;-72
2022/03/06 06:51:00;;;;;;;;;;;-1.10;99.90;;;;;;5093279;28;19931;-71
2022/03/06 06:53:27;;;;;;;;;;;-1.20;99.90;;;;;;5093215;28;19928;-72
2022/03/06 06:55:54;;;;;;;;;;;-1.10;99.90;;;;;;5094093;28;19928;-74
2022/03/06 06:58:22;;;;;;;;;;;-1.10;99.90;;;;;;5093471;28;20002;-73
2022/03/06 07:00:49;;;;;;;;;;;-1.10;99.90;;;;;;5093335;28;20272;-70
2022/03/06 07:03:16;;;;;;;;;;;-1.10;99.90;;;;;;5094011;28;19935;-73
2022/03/06 07:05:44;;;;;;;;;;;-1.10;99.90;;;;;;5093676;28;20019;-73
2022/03/06 07:08:11;;;;;;;;;;;-1.00;99.90;;;;;;5093538;28;19931;-73
2022/03/06 07:10:38;;;;;;;;;;;-1.00;99.90;;;;;;5092333;28;20292;-75
2022/03/06 07:13:05;;;;;;;;;;;-1.00;99.90;;;;;;5076738;28;19924;-73
2022/03/06 07:15:33;;;;;;;;;;;-1.00;99.90;;;;;;5077418;28;20307;-72
2022/03/06 07:18:00;;;;;;;;;;;-0.90;99.90;;;;;;5076316;28;19924;-73
2022/03/06 07:20:28;;;;;;;;;;;-0.90;99.90;;;;;;5076736;28;20323;-73
2022/03/06 07:22:55;;;;;;;;;;;-0.80;99.90;;;;;;5076587;28;20279;-74
2022/03/06 07:25:22;;;;;;;;;;;-0.80;99.90;;;;;;5076546;28;20318;-71
2022/03/06 07:27:49;;;;;;;;;;;-0.70;99.90;;;;;;5076457;28;19924;-73
2022/03/06 07:30:15;;;;;;;;;;;-0.60;99.90;;;;;;5076172;28;19924;-74
2022/03/06 07:32:44;;;;;;;;;;;-0.40;99.90;;;;;;5076332;28;19924;-74
2022/03/06 07:35:11;;;;;;;;;;;-0.20;99.90;;;;;;5075828;28;19924;-73
2022/03/06 07:37:38;;;;;;;;;;;0.00;99.90;;;;;;5075758;28;19935;-73
2022/03/06 07:40:06;;;;;;;;;;;0.10;99.90;;;;;;5077771;28;19928;-74
2022/03/06 07:42:33;;;;;;;;;;;0.20;99.90;;;;;;5074757;28;19938;-73
2022/03/06 07:45:00;;;;;;;;;;;0.30;99.90;;;;;;5074767;28;19926;-73
2022/03/06 07:47:27;;;;;;;;;;;0.40;99.90;;;;;;5075171;28;20399;-73
2022/03/06 07:49:55;;;;;;;;;;;0.40;99.90;;;;;;5074587;28;20397;-73
2022/03/06 07:52:22;;;;;;;;;;;0.40;99.90;;;;;;5072384;28;20441;-73
2022/03/06 07:54:49;;;;;;;;;;;0.40;99.90;;;;;;5072038;28;19928;-73
2022/03/06 07:57:15;;;;;;;;;;;0.40;99.90;;;;;;5094029;28;19972;-73
2022/03/06 07:59:42;;;;;;;;;;;0.40;99.90;;;;;;5078498;28;19924;-76
2022/03/06 08:02:09;;;;;;;;;;;0.40;99.90;;;;;;5086833;28;19935;-74
2022/03/06 08:04:36;;;;;;;;;;;0.50;99.90;;;;;;5085599;28;20279;-75
2022/03/06 08:07:05;;;;;;;;;;;0.50;99.90;;;;;;5081214;28;20395;-74
2022/03/06 08:09:32;;;;;;;;;;;0.50;99.90;;;;;;5086276;28;19931;-74
2022/03/06 08:12:00;;;;;;;;;;;0.60;99.90;;;;;;5081432;28;19928;-74
2022/03/06 08:14:27;;;;;;;;;;;0.70;99.90;;;;;;5089386;28;19928;-72
2022/03/06 08:16:54;;;;;;;;;;;0.70;99.90;;;;;;5085689;28;19931;-74
2022/03/06 08:19:20;;;;;;;;;;;0.80;99.90;;;;;;5086727;28;19925;-74
2022/03/06 08:21:48;;;;;;;;;;;0.90;99.90;;;;;;5079753;28;19946;-77
2022/03/06 08:24:16;;;;;;;;;;;0.90;99.90;;;;;;5082082;28;19968;-75
2022/03/06 08:26:43;;;;;;;;;;;1.00;99.90;;;;;;5079135;28;19924;-74
2022/03/06 08:29:10;;;;;;;;;;;1.00;99.90;;;;;;5082816;28;19925;-75
2022/03/06 08:31:36;;;;;;;;;;;1.10;99.90;;;;;;5080219;28;19924;-75
2022/03/06 08:34:03;;;;;;;;;;;1.30;99.90;;;;;;5084729;28;19932;-76
2022/03/06 08:36:31;;;;;;;;;;;1.40;99.90;;;;;;5080962;28;19931;-73
2022/03/06 08:38:58;;;;;;;;;;;1.60;99.90;;;;;;5077777;28;19928;-72
2022/03/06 08:41:26;;;;;;;;;;;1.70;99.90;;;;;;5082806;28;19924;-72
2022/03/06 08:43:55;;;;;;;;;;;1.80;99.90;;;;;;5079933;28;20189;-72
2022/03/06 08:46:22;;;;;;;;;;;1.90;99.90;;;;;;5082357;28;19924;-72
2022/03/06 08:48:48;;;;;;;;;;;2.10;99.90;;;;;;5079364;28;19932;-74
2022/03/06 08:51:15;;;;;;;;;;;2.20;99.90;;;;;;5079194;28;19924;-72
2022/03/06 08:53:42;;;;;;;;;;;2.40;99.90;;;;;;5079836;28;19959;-74
2022/03/06 08:56:09;;;;;;;;;;;2.50;99.90;;;;;;5082795;28;19936;-73
2022/03/06 08:58:37;;;;;;;;;;;2.70;99.90;;;;;;5082276;28;19932;-73
2022/03/06 09:01:04;;;;;;;;;;;2.90;99.90;;;;;;5097854;28;20028;-71
2022/03/06 09:03:31;;;;;;;;;;;3.00;99.90;;;;;;5082056;28;19931;-71
2022/03/06 09:05:58;;;;;;;;;;;3.20;99.90;;;;;;5084990;28;19928;-71
2022/03/06 09:08:25;;;;;;;;;;;3.40;99.90;;;;;;5084121;28;20423;-71
2022/03/06 09:10:52;;;;;;;;;;;3.60;99.90;;;;;;5081544;28;19924;-73
2022/03/06 09:13:18;;;;;;;;;;;3.80;99.90;;;;;;5082454;28;19924;-72
2022/03/06 09:15:47;;;;;;;;;;;4.00;99.90;;;;;;5081442;28;20288;-71
2022/03/06 09:18:13;;;;;;;;;;;4.20;99.90;;;;;;5078398;28;19924;-71
2022/03/06 09:20:40;;;;;;;;;;;4.30;99.90;;;;;;5077150;28;19928;-72
2022/03/06 09:23:09;;;;;;;;;;;4.30;99.90;;;;;;5082182;28;19966;-71
2022/03/06 09:25:35;;;;;;;;;;;4.40;99.90;;;;;;5078601;28;19932;-71
2022/03/06 09:28:02;;;;;;;;;;;4.50;99.90;;;;;;5082039;28;20357;-73
2022/03/06 09:30:30;;;;;;;;;;;4.60;99.90;;;;;;5079117;28;19924;-71
2022/03/06 09:32:59;;;;;;;;;;;4.60;99.90;;;;;;5082111;28;19928;-72
2022/03/06 09:35:26;;;;;;;;;;;4.70;99.90;;;;;;5082700;28;19931;-72
2022/03/06 09:37:53;;;;;;;;;;;4.80;99.90;;;;;;5086831;28;19924;-74
2022/03/06 09:40:20;;;;;;;;;;;5.10;99.90;;;;;;5077625;28;19923;-73
2022/03/06 09:42:47;;;;;;;;;;;5.30;99.90;;;;;;5077048;28;19924;-68
2022/03/06 09:45:14;;;;;;;;;;;5.40;99.90;;;;;;5079340;28;19931;-73
2022/03/06 09:47:42;;;;;;;;;;;5.60;99.90;;;;;;5074678;28;19939;-72
2022/03/06 09:50:11;;;;;;;;;;;5.80;99.90;;;;;;5073498;28;19977;-73
2022/03/06 09:52:38;;;;;;;;;;;6.00;99.90;;;;;;5074624;28;19937;-73
2022/03/06 09:55:06;;;;;;;;;;;6.00;99.90;;;;;;5082076;28;19924;-72
2022/03/06 09:57:33;;;;;;;;;;;6.10;99.90;;;;;;5075900;28;20403;-72
2022/03/06 09:59:59;;;;;;;;;;;6.10;99.90;;;;;;5080183;28;19931;-72
2022/03/06 10:02:26;;;;;;;;;;;6.10;99.90;;;;;;5081586;28;19928;-74
2022/03/06 10:04:53;;;;;;;;;;;6.20;99.90;;;;;;5080363;28;20432;-72
2022/03/06 10:07:21;;;;;;;;;;;6.40;99.90;;;;;;5084416;28;19924;-72
2022/03/06 10:09:49;;;;;;;;;;;6.50;99.90;;;;;;5084242;28;19977;-73
2022/03/06 10:12:20;;;;;;;;;;;6.50;99.90;;;;;;5083835;28;19931;-73
2022/03/06 10:14:48;;;;;;;;;;;6.50;99.90;;;;;;5085331;28;19992;-72
2022/03/06 10:17:17;;;;;;;;;;;6.60;99.90;;;;;;5085829;28;20363;-73
2022/03/06 10:19:57;;;;;;;;;;;6.70;99.90;;;;;;5080563;28;19924;-73
2022/03/06 10:22:27;;;;;;;;;;;6.80;99.90;;;;;;5088544;28;19931;-72
2022/03/06 10:24:54;;;;;;;;;;;6.80;99.90;;;;;;5093154;28;19931;-73
2022/03/06 10:27:36;;;;;;;;;;;6.60;99.90;;;;;;5093707;28;20205;-72
2022/03/06 10:30:04;;;;;;;;;;;6.60;99.90;;;;;;5091976;28;19924;-71
2022/03/06 10:32:42;;;;;;;;;;;6.70;99.90;;;;;;5093430;28;19931;-72
2022/03/06 10:35:09;;;;;;;;;;;6.80;99.90;;;;;;5093456;28;19932;-71
2022/03/06 10:37:37;;;;;;;;;;;7.10;99.90;;;;;;5083551;28;19963;-73
2022/03/06 10:40:04;;;;;;;;;;;7.30;99.90;;;;;;5095986;28;19935;-72
2022/03/06 10:42:31;;;;;;;;;;;7.30;99.90;;;;;;5097149;28;19931;-71
2022/03/06 10:44:58;;;;;;;;;;;7.60;99.90;;;;;;5085700;28;19932;-73
2022/03/06 10:47:25;;;;;;;;;;;7.80;99.90;;;;;;5096254;28;19923;-72
2022/03/06 10:50:01;;;;;;;;;;;8.10;99.90;;;;;;5095171;28;19928;-72
2022/03/06 10:52:28;;;;;;;;;;;8.50;99.90;;;;;;5085309;28;19932;-74
2022/03/06 10:54:57;;;;;;;;;;;8.80;99.90;;;;;;5090331;28;19946;-73
2022/03/06 10:57:25;;;;;;;;;;;9.20;99.90;;;;;;5073232;28;19931;-74
2022/03/06 10:59:52;;;;;;;;;;;9.60;99.90;;;;;;5081547;28;19936;-73
2022/03/06 11:02:20;;;;;;;;;;;9.70;99.90;;;;;;5078507;28;19924;-73
2022/03/06 11:04:47;;;;;;;;;;;10.00;99.90;;;;;;5086586;28;19966;-73
2022/03/06 11:07:14;;;;;;;;;;;12.30;99.90;;;;;;5098098;28;19924;-73
2022/03/06 11:09:41;;;;;;;;;;;15.90;99.90;;;;;;5083782;28;20002;-74
2022/03/06 11:12:10;;;;;;;;;;;18.40;98.60;;;;;;5078368;28;19928;-76
2022/03/06 11:14:36;;;;;;;;;;;19.80;96.40;;;;;;5075702;28;19924;-74
2022/03/06 11:17:03;;;;;;;;;;;20.40;95.10;;;;;;5075605;28;19952;-74
2022/03/06 11:19:33;;;;;;;;;;;19.10;93.60;;;;;;5074779;28;19924;-74
2022/03/06 11:22:03;;;;;;;;;;;18.80;93.10;;;;;;5075397;28;20019;-73
2022/03/06 11:24:30;;;;;;;;;;;19.60;93.10;;;;;;5075407;28;20330;-74
2022/03/06 11:27:12;;;;;;;;;;;20.80;92.70;;;;;;5075837;28;19924;-73
2022/03/06 11:29:54;;;;;;;;;;;21.90;92.20;;;;;;5072924;28;19959;-76
2022/03/06 11:32:26;;;;;;;;;;;22.40;91.10;;;;;;5075385;28;19924;-74
2022/03/06 11:34:53;;;;;;;;;;;22.40;90.60;;;;;;5080298;28;20398;-72
2022/03/06 11:37:21;;;;;;;;;;;22.00;88.40;;;;;;5095380;28;19989;-74
2022/03/06 11:39:49;;;;;;;;;;;21.40;88.90;;;;;;5095134;28;19931;-74
2022/03/06 11:42:34;;;;;;;;;;;20.80;89.70;;;;;;5095496;28;20451;-74
2022/03/06 11:45:03;;;;;;;;;;;20.00;88.20;;;;;;5095576;28;19946;-73
2022/03/06 11:47:39;;;;;;;;;;;18.30;92.30;;;;;;5095307;28;19969;-73
2022/03/06 11:50:07;;;;;;;;;;;18.80;92.60;;;;;;5094824;28;19924;-72
2022/03/06 11:52:34;;;;;;;;;;;20.30;94.80;;;;;;5095484;28;20410;-74
2022/03/06 11:55:03;;;;;;;;;;;20.80;95.00;;;;;;5093463;28;19927;-79
2022/03/06 11:57:36;;;;;;;;;;;21.80;95.30;;;;;;5095154;28;19932;-73
2022/03/06 12:00:18;;;;;;;;;;;22.30;95.30;;;;;;5090030;28;19935;-73
2022/03/06 12:02:47;;;;;;;;;;;23.50;95.10;;;;;;5083694;28;20337;-77
2022/03/06 12:05:14;;;;;;;;;;;23.50;95.70;;;;;;5083681;28;19924;-73
2022/03/06 12:07:41;;;;;;;;;;;24.70;95.20;;;;;;5080533;28;19931;-73
2022/03/06 12:10:10;;;;;;;;;;;25.20;94.10;;;;;;5091803;28;19924;-73
2022/03/06 12:12:37;;;;;;;;;;;24.30;91.80;;;;;;5072329;28;19924;-73
2022/03/06 12:15:13;;;;;;;;;;;23.30;92.40;;;;;;5055703;28;19924;-74
2022/03/06 12:17:40;;;;;;;;;;;24.00;92.60;;;;;;5055049;28;19925;-73
2022/03/06 12:20:13;;;;;;;;;;;23.70;92.00;;;;;;5053767;28;19924;-73
2022/03/06 12:22:45;;;;;;;;;;;23.90;91.40;;;;;;5054682;28;19931;-73
2022/03/06 12:25:24;;;;;;;;;;;23.90;90.90;;;;;;5054774;28;19931;-71
2022/03/06 12:28:10;;;;;;;;;;;24.10;90.80;;;;;;5054329;28;19925;-71
2022/03/06 12:30:38;;;;;;;;;;;24.90;91.10;;;;;;5053793;28;20023;-72
2022/03/06 12:33:20;;;;;;;;;;;25.60;83.80;;;;;;5054688;28;19924;-71
2022/03/06 12:35:48;;;;;;;;;;;26.00;83.60;;;;;;5053914;28;19946;-73
2022/03/06 12:38:21;;;;;;;;;;;25.60;81.20;;;;;;5054410;28;20388;-73
2022/03/06 12:40:48;;;;;;;;;;;25.60;80.70;;;;;;5054285;28;19928;-72
2022/03/06 12:43:19;;;;;;;;;;;25.20;79.70;;;;;;5054411;28;19935;-74
2022/03/06 12:45:46;;;;;;;;;;;25.00;80.10;;;;;;5054565;28;19935;-72
2022/03/06 12:48:13;;;;;;;;;;;24.60;80.10;;;;;;5054206;28;19976;-73
2022/03/06 12:50:42;;;;;;;;;;;24.90;81.60;;;;;;5054282;28;19924;-72
2022/03/06 12:53:15;;;;;;;;;;;24.70;83.30;;;;;;5054523;28;19948;-72
2022/03/06 12:55:44;;;;;;;;;;;24.30;81.40;;;;;;5054409;28;19929;-72
2022/03/06 12:58:11;;;;;;;;;;;24.70;81.90;;;;;;5054446;28;19924;-73
2022/03/06 13:00:38;;;;;;;;;;;25.20;80.60;;;;;;5053536;28;19932;-72
2022/03/06 13:03:07;;;;;;;;;;;24.50;78.10;;;;;;5054486;28;19924;-72
2022/03/06 13:05:34;;;;;;;;;;;24.10;76.40;;;;;;5054138;28;19976;-72
2022/03/06 13:08:01;;;;;;;;;;;24.30;78.70;;;;;;5054366;28;19978;-72
2022/03/06 13:10:30;;;;;;;;;;;24.30;78.10;;;;;;5053705;28;19931;-73
2022/03/06 13:12:57;;;;;;;;;;;24.90;78.50;;;;;;5054647;28;19924;-73
2022/03/06 13:15:26;;;;;;;;;;;24.40;79.10;;;;;;5054606;28;20028;-72
2022/03/06 13:17:56;;;;;;;;;;;23.50;75.60;;;;;;5054193;28;20434;-73
2022/03/06 13:20:28;;;;;;;;;;;19.80;88.00;;;;;;5053310;28;19924;-73
2022/03/06 13:22:55;;;;;;;;;;;17.10;77.30;;;;;;5053914;28;19924;-72
2022/03/06 13:25:23;;;;;;;;;;;15.80;73.70;;;;;;5053778;28;19932;-72
2022/03/06 13:27:52;;;;;;;;;;;14.60;74.50;;;;;;5053333;28;19928;-73
2022/03/06 13:30:19;;;;;;;;;;;17.10;76.40;;;;;;5052648;28;20303;-73
2022/03/06 13:32:48;;;;;;;;;;;16.20;75.80;;;;;;5053111;28;19928;-74
2022/03/06 13:35:28;;;;;;;;;;;14.40;75.20;;;;;;5052458;28;19928;-73
2022/03/06 13:37:55;;;;;;;;;;;13.50;78.60;;;;;;5052933;28;19935;-72
2022/03/06 13:40:24;;;;;;;;;;;12.60;78.60;;;;;;5052548;28;19931;-74
2022/03/06 13:42:52;;;;;;;;;;;12.30;79.50;;;;;;5053079;28;19924;-72
2022/03/06 13:45:19;;;;;;;;;;;12.60;78.80;;;;;;5053129;28;19978;-72
2022/03/06 13:47:47;;;;;;;;;;;13.30;80.20;;;;;;5053039;28;19924;-73
2022/03/06 13:50:18;;;;;;;;;;;13.60;79.20;;;;;;5052685;28;19982;-74
2022/03/06 13:52:46;;;;;;;;;;;12.90;78.70;;;;;;5053199;28;19925;-73
2022/03/06 13:55:13;;;;;;;;;;;12.30;79.00;;;;;;5052935;28;19924;-72
2022/03/06 13:57:41;;;;;;;;;;;12.40;79.90;;;;;;5052634;28;19925;-73
2022/03/06 14:00:22;;;;;;;;;;;13.70;80.30;;;;;;5052086;28;19932;-72
2022/03/06 14:02:58;;;;;;;;;;;14.50;80.10;;;;;;5053048;28;19929;-72
2022/03/06 14:05:27;;;;;;;;;;;15.50;78.70;;;;;;5052795;28;19928;-74
2022/03/06 14:07:53;;;;;;;;;;;15.90;77.60;;;;;;5052888;28;19956;-72
2022/03/06 14:10:35;;;;;;;;;;;15.60;76.50;;;;;;5053920;28;19932;-73
2022/03/06 14:13:02;;;;;;;;;;;15.00;76.70;;;;;;5072614;28;19924;-73
2022/03/06 14:15:33;;;;;;;;;;;15.20;76.80;;;;;;5072694;28;20395;-73
2022/03/06 14:18:00;;;;;;;;;;;15.10;76.10;;;;;;5072805;28;19924;-72
2022/03/06 14:20:27;;;;;;;;;;;15.20;75.80;;;;;;5071921;28;19927;-73
2022/03/06 14:22:54;;;;;;;;;;;15.40;76.20;;;;;;5072614;28;19924;-73
2022/03/06 14:25:20;;;;;;;;;;;14.70;76.30;;;;;;5072689;28;19932;-71